Weather reports worldwide

Advertisment
Gwinn, mi, United States of America (2074855): temperature & dewpoint: 11.08.2018 08:00:00 - 17.08.2018 08:00:00 (EDT)Gwinn, mi, United States of America (2074855): wind speed: 11.08.2018 08:00:00 - 17.08.2018 08:00:00 (EDT)Gwinn, mi, United States of America (2074855): wind direction: 11.08.2018 08:00:00 - 17.08.2018 08:00:00 (EDT)Gwinn, mi, United States of America (2074855): visibility: 11.08.2018 08:00:00 - 17.08.2018 08:00:00 (EDT)
Date & Time tt [°C] td [°C] ff [km/h] ff [kn] dd vv [km]
17.08.2018 08:00:00 13,0 13,0 0 0 N 1,2
17.08.2018 07:00:00 12,0 12,0 0 0 N 0,4
17.08.2018 06:00:00 13,2 12,5 0 0 N 8
17.08.2018 05:00:00 13,1 12,2 0 0 N 2,8
17.08.2018 04:00:00 13,4 12,4 0 0 N 0,8
17.08.2018 03:00:00 14,9 13,6 0 0 N 11
17.08.2018 02:00:00 15,7 14,1 0 0 N 16
17.08.2018 01:00:00 16,6 14,6 5 3 N 16
17.08.2018 00:00:00 17,7 15,0 5 3 N 16
16.08.2018 23:00:00 17,8 15,0 0 0 N 16
16.08.2018 22:00:00 18,0 15,0 0 0 N 16
16.08.2018 21:00:00 19,0 15,0 9 5 NNE 16
16.08.2018 20:00:00 19,0 16,0 16 9 NNE 16
16.08.2018 19:00:00 22,0 17,0 15 8 NE 16
16.08.2018 18:00:00 23,0 17,0 16 9 NE 16
16.08.2018 17:00:00 23,0 18,0 18 10 NE 16
16.08.2018 16:00:00 26,0 18,0 0 0 N 16
16.08.2018 15:00:00 25,0 18,0 0 0 N 16
16.08.2018 14:00:00 24,0 18,0 0 0 N 16
16.08.2018 13:00:00 23,0 17,0 0 0 N 16
16.08.2018 12:00:00 22,0 16,0 8 4 SSE 16
16.08.2018 11:00:00 20,0 15,0 5 3 S 16
16.08.2018 10:00:00 17,0 12,0 0 0 N 16
16.08.2018 09:00:00 16,0 11,0 0 0 N 16
16.08.2018 08:00:00 15,0 11,0 0 0 N 16
16.08.2018 07:00:00 15,0 10,0 0 0 N 16
16.08.2018 06:00:00 13,8 10,6 0 0 N 16
16.08.2018 05:00:00 16,0 10,2 8 4 SE 16
16.08.2018 04:00:00 16,0 11,0 8 4 SE 16
16.08.2018 03:00:00 16,4 11,7 0 0 N 16
16.08.2018 02:00:00 14,8 12,7 0 0 N 16
16.08.2018 01:00:00 15,1 13,0 0 0 N 16
16.08.2018 00:00:00 14,6 12,5 8 4 N 16
15.08.2018 23:00:00 15,0 12,6 5 3 N 16
15.08.2018 22:00:00 16,0 13,0 8 4 NE 16
15.08.2018 21:00:00 16,0 13,0 9 5 NNE 16
15.08.2018 20:00:00 17,0 13,0 13 7 NNE 16
15.08.2018 19:00:00 18,0 14,0 16 9 NNE 16
15.08.2018 18:00:00 20,0 15,0 21 11 NE 16
15.08.2018 17:00:00 20,0 15,0 16 9 NNE 16
15.08.2018 16:00:00 22,0 16,0 11 6 NE 16
15.08.2018 15:00:00 20,0 16,0 15 8 NE 16
15.08.2018 14:00:00 21,0 16,0 0 0 N 16
15.08.2018 13:00:00 30,0 15,0 5 3 NNE 16
15.08.2018 12:00:00 20,0 14,0 9 5 NE 16
15.08.2018 11:00:00 19,0 14,0 15 8 ENE 16
15.08.2018 10:00:00 17,0 14,0 5 3 NE 16
15.08.2018 09:00:00 16,0 14,0 5 3 NNE 16
15.08.2018 08:00:00 15,0 14,0 9 5 NE 16
15.08.2018 07:00:00 16,0 14,0 13 7 NNE 16
15.08.2018 06:00:00 15,6 14,0 11 6 N 16
15.08.2018 05:00:00 16,0 14,3 9 5 N 16
15.08.2018 04:00:00 14,9 13,4 8 4 N 16
15.08.2018 03:00:00 14,0 12,9 5 3 N 16
15.08.2018 02:00:00 15,0 13,6 5 3 NNW 16
15.08.2018 01:00:00 15,1 13,6 5 3 NW 16
15.08.2018 00:00:00 16,5 14,5 9 5 NNE 16
14.08.2018 23:00:00 15,7 14,5 0 0 N 16
14.08.2018 22:00:00 16,0 14,0 9 5 NNW 16
14.08.2018 21:00:00 17,0 15,0 8 4 NNE 16
14.08.2018 20:00:00 17,0 16,0 9 5 NNE 16
14.08.2018 19:00:00 17,0 15,0 22 12 NE 16
14.08.2018 18:00:00 19,0 16,0 13 7 NE 8
14.08.2018 17:00:00 19,0 17,0 8 4 N 16
14.08.2018 16:00:00 20,0 17,0 13 7 NE 16
14.08.2018 15:00:00 19,0 17,0 15 8 E 16
14.08.2018 14:00:00 24,0 17,0 31 17 NE 16
14.08.2018 13:00:00 25,0 19,0 18 10 NE 16
14.08.2018 12:00:00 28,0 19,0 8 4 WSW 16
14.08.2018 11:00:00 26,0 19,0 13 7 W 16
14.08.2018 10:00:00 24,0 18,0 13 7 WNW 16
14.08.2018 09:00:00 20,0 17,0 0 0 N 16
14.08.2018 08:00:00 17,0 16,0 5 3 S 16
14.08.2018 07:00:00 17,0 16,0 8 4 S 11
14.08.2018 06:00:00 17,3 16,0 5 3 S 11
14.08.2018 05:00:00 17,5 16,2 9 5 S 11
14.08.2018 04:00:00 18,0 16,6 8 4 SSW 11
14.08.2018 03:00:00 18,5 17,1 8 4 S 11
14.08.2018 02:00:00 19,0 17,5 9 5 S 11
14.08.2018 01:00:00 19,3 17,5 9 5 SSW 16
14.08.2018 00:00:00 20,3 18,1 9 5 SSW 16
13.08.2018 23:00:00 21,5 18,4 13 7 S 16
13.08.2018 22:00:00 24,0 19,0 11 6 S 16
13.08.2018 21:00:00 25,0 19,0 16 9 S 16
13.08.2018 20:00:00 28,0 18,0 16 9 SSW 16
13.08.2018 19:00:00 29,0 18,0 21 11 SSW 16
13.08.2018 18:00:00 30,0 17,0 22 12 SSW 16
13.08.2018 17:00:00 30,0 15,0 15 8 SSW 16
13.08.2018 16:00:00 30,0 16,0 9 5 SW 16
13.08.2018 15:00:00 29,0 16,0 16 9 SSW 16
13.08.2018 14:00:00 29,0 17,0 9 5 SSW 16
13.08.2018 13:00:00 28,0 18,0 0 0 N 16
13.08.2018 12:00:00 26,0 19,0 5 3 SSW 16
13.08.2018 11:00:00 23,0 18,0 5 3 SSW 16
13.08.2018 10:00:00 20,0 18,0 8 4 SSW 16
13.08.2018 09:00:00 17,0 16,0 0 0 N 11
13.08.2018 08:00:00 15,0 14,0 0 0 N 4,8
13.08.2018 07:00:00 15,0 14,0 0 0 N 2,4
13.08.2018 06:00:00 16,0 15,0 0 0 N 0,4
13.08.2018 05:00:00 16,2 15,3 8 4 SSW 0,4
13.08.2018 04:00:00 17,1 16,1 9 5 S 8
13.08.2018 03:00:00 17,7 16,5 0 0 N 11
13.08.2018 02:00:00 18,0 16,9 0 0 N 8
13.08.2018 01:00:00 18,2 17,0 0 0 N 11
13.08.2018 00:00:00 19,5 17,5 8 4 S 16
12.08.2018 23:00:00 20,6 17,6 9 5 S 16
12.08.2018 22:00:00 22,0 18,0 9 5 S 16
12.08.2018 21:00:00 24,0 16,0 5 3 E 16
12.08.2018 20:00:00 26,0 15,0 8 4 ENE 16
12.08.2018 19:00:00 28,0 13,0 5 3 E 16
12.08.2018 18:00:00 28,0 14,0 11 6 NE 16
12.08.2018 17:00:00 28,0 13,0 8 4 ENE 16
12.08.2018 16:00:00 28,0 12,0 5 3 ENE 16
12.08.2018 15:00:00 27,0 13,0 8 4 ENE 16
12.08.2018 14:00:00 27,0 13,0 5 3 E 16
12.08.2018 13:00:00 26,0 14,0 9 5 NE 16
12.08.2018 12:00:00 24,0 17,0 0 0 N 16
12.08.2018 11:00:00 22,0 15,0 9 5 SW 16
12.08.2018 10:00:00 18,0 14,0 5 3 WSW 16
12.08.2018 09:00:00 14,0 13,0 0 0 N 16
12.08.2018 08:00:00 11,0 10,0 0 0 N 16
12.08.2018 07:00:00 10,0 9,0 0 0 N 8
12.08.2018 06:00:00 10,1 9,3 0 0 N 11
12.08.2018 05:00:00 10,9 10,0 0 0 N 8
12.08.2018 04:00:00 11,3 10,4 0 0 N 1,6
12.08.2018 03:00:00 11,5 10,5 0 0 N 1,2
12.08.2018 02:00:00 12,6 11,0 0 0 N 11
12.08.2018 01:00:00 13,6 12,6 0 0 N 4,8
12.08.2018 00:00:00 13,8 12,5 5 3 NW 16
11.08.2018 23:00:00 15,6 13,6 5 3 NNE 16
11.08.2018 22:00:00 18,0 15,0 5 3 N 16
11.08.2018 21:00:00 21,0 15,0 5 3 ENE 16
11.08.2018 20:00:00 22,0 15,0 13 7 NNE 16
11.08.2018 19:00:00 24,0 16,0 13 7 NNE 16
11.08.2018 18:00:00 24,0 16,0 9 5 NE 16
11.08.2018 17:00:00 24,0 16,0 13 7 NE 16
11.08.2018 16:00:00 24,0 16,0 9 5 NNE 16
11.08.2018 15:00:00 24,0 16,0 13 7 NE 16
11.08.2018 14:00:00 24,0 17,0 15 8 NE 16
11.08.2018 13:00:00 23,0 16,0 15 8 N 16
11.08.2018 12:00:00 23,0 15,0 11 6 ENE 16
11.08.2018 11:00:00 22,0 16,0 8 4 NNE 16
11.08.2018 10:00:00 20,0 16,0 0 0 N 16
11.08.2018 09:00:00 17,0 15,0 5 3 NW 16
11.08.2018 08:00:00 15,0 14,0 0 0 N 16

tt = temperature
td = dewpoint
ff = wind speed
dd = wind direction
vv = visibility

Next stations